Terminal Aerodrome Forecast
Issued by NWS

Home | Current Version | Previous Version | Text Only | Print | Product List | Glossary On
Versions: 1 2 3 4 5 6 7 8 9 10 11 12 13
253
FTUS42 KJAX 150524
TAFCRG
TAF
KCRG 150524Z 1506/1606 24003KT P6SM BKN060 BKN250
     FM151600 26008KT P6SM SCT030 BKN100
     FM160000 VRB03KT P6SM BKN250=

USA.gov is the U.S. government's official web portal to all federal, state and local government web resources and services.